Time;durP1;ratioP1;P1;durP2;ratioP2;P2;SDS_P1;SDS_P2;PMS_P1;PMS_P2;Temp;Humidity;BMP_temperature;BMP_pressure;BME280_temperature;BME280_humidity;BME280_pressure;Samples;Min_cycle;Max_cycle;Signal;HPM_P1;HPM_P2
2022/11/29 05:33:20;;;;;;;;;7.25;7.25;;;;;10.63;71.70;101227.84;5039790;28;46535;-64
2022/11/29 05:35:59;;;;;;;;;8.00;8.00;;;;;10.57;71.58;101232.47;5041794;28;45276;-64
2022/11/29 05:38:54;;;;;;;;;6.75;6.75;;;;;10.53;71.90;101240.72;5041856;28;45398;-65
2022/11/29 05:41:33;;;;;;;;;9.50;8.25;;;;;10.55;71.99;101246.88;5041583;28;45468;-64
2022/11/29 05:44:08;;;;;;;;;8.75;7.50;;;;;10.50;71.91;101247.06;5041093;28;45388;-65
2022/11/29 05:46:44;;;;;;;;;7.25;7.25;;;;;10.45;71.96;101240.13;5041424;28;45175;-64
2022/11/29 05:49:16;;;;;;;;;10.25;9.25;;;;;10.51;72.12;101261.34;5041339;28;45212;-64
2022/11/29 05:52:01;;;;;;;;;8.50;7.25;;;;;10.48;72.54;101261.44;5023340;28;45410;-65
2022/11/29 05:54:41;;;;;;;;;8.00;8.00;;;;;10.50;72.57;101256.91;5041263;28;45309;-65
2022/11/29 05:57:15;;;;;;;;;9.00;9.00;;;;;10.50;72.26;101263.16;5040998;28;45190;-65
2022/11/29 05:59:43;;;;;;;;;11.75;10.75;;;;;10.38;72.10;101242.13;5041144;28;45269;-65
2022/11/29 06:02:09;;;;;;;;;8.75;8.75;;;;;10.45;72.19;101275.84;5040957;28;45526;-67
2022/11/29 06:04:56;;;;;;;;;10.00;10.00;;;;;10.42;72.57;101253.63;5041039;28;46611;-65
2022/11/29 06:07:25;;;;;;;;;8.75;8.50;;;;;10.47;72.37;101276.66;5040581;28;45320;-64
2022/11/29 06:10:00;;;;;;;;;12.50;10.25;;;;;10.21;72.52;101223.13;5040796;28;45324;-63
2022/11/29 06:12:27;;;;;;;;;11.25;8.00;;;;;10.48;72.43;101285.56;5035852;28;45484;-65
2022/11/29 06:15:32;;;;;;;;;8.25;8.00;;;;;10.46;72.75;101282.94;5041240;28;45680;-63
2022/11/29 06:18:08;;;;;;;;;11.25;10.00;;;;;10.43;72.32;101274.16;5041102;28;45458;-64
2022/11/29 06:21:01;;;;;;;;;7.50;7.50;;;;;10.35;72.51;101282.47;5041164;28;45320;-64
2022/11/29 06:23:54;;;;;;;;;10.50;10.50;;;;;10.35;72.38;101284.28;5040933;28;45526;-65
2022/11/29 06:26:28;;;;;;;;;11.75;10.75;;;;;10.32;73.04;101289.75;5041193;28;46526;-65
2022/11/29 06:29:32;;;;;;;;;9.00;9.00;;;;;10.29;72.58;101293.44;5040570;28;45453;-64
2022/11/29 06:32:17;;;;;;;;;9.25;9.25;;;;;10.24;72.82;101290.91;5042044;28;45337;-63
2022/11/29 06:34:58;;;;;;;;;12.00;9.50;;;;;10.26;72.72;101292.66;5041385;28;45433;-64
2022/11/29 06:37:36;;;;;;;;;9.25;9.25;;;;;10.22;73.05;101292.75;5040864;28;46134;-64
2022/11/29 06:40:03;;;;;;;;;13.75;10.25;;;;;10.17;72.86;101284.00;5006018;28;45328;-63
2022/11/29 06:42:28;;;;;;;;;8.00;8.00;;;;;10.25;72.93;101305.16;5040836;28;45368;-64
2022/11/29 06:44:54;;;;;;;;;13.75;11.50;;;;;10.23;72.74;101301.66;5039729;28;55905;-64
2022/11/29 06:47:45;;;;;;;;;10.75;10.75;;;;;10.16;72.88;101300.09;5039121;28;45977;-64
2022/11/29 06:50:35;;;;;;;;;9.75;9.75;;;;;10.14;72.88;101302.81;5039856;28;45433;-64
2022/11/29 06:53:18;;;;;;;;;14.75;13.00;;;;;10.06;73.38;101294.19;5039764;28;45408;-67
2022/11/29 06:55:58;;;;;;;;;19.00;13.00;;;;;10.14;72.93;101313.53;5039153;28;45190;-65
2022/11/29 06:59:09;;;;;;;;;14.00;11.50;;;;;10.19;72.83;101314.31;5039738;28;45410;-66
2022/11/29 07:01:40;;;;;;;;;9.50;9.50;;;;;10.21;72.51;101317.78;5018931;28;45914;-66
2022/11/29 07:04:39;;;;;;;;;11.25;9.25;;;;;10.26;72.56;101322.13;5040210;28;45359;-64
2022/11/29 07:07:14;;;;;;;;;11.00;11.00;;;;;10.16;72.66;101306.34;5040591;28;45438;-66
2022/11/29 07:09:41;;;;;;;;;13.75;9.00;;;;;10.30;72.72;101334.47;5039616;28;46183;-65
2022/11/29 07:12:06;;;;;;;;;11.00;11.00;;;;;10.20;72.55;101318.75;5039587;28;45871;-65
2022/11/29 07:14:32;;;;;;;;;13.50;12.00;;;;;10.09;72.70;101318.19;5039984;28;45341;-65
2022/11/29 07:17:11;;;;;;;;;10.00;10.00;;;;;10.06;72.78;101323.66;5020366;28;46631;-64
2022/11/29 07:20:18;;;;;;;;;13.50;11.75;;;;;10.11;73.41;101348.50;5039613;28;46204;-66
2022/11/29 07:22:58;;;;;;;;;10.75;10.75;;;;;10.16;72.94;101343.84;4958755;28;45435;-65
2022/11/29 07:25:43;;;;;;;;;9.00;9.00;;;;;10.21;72.67;101339.22;5033911;28;45379;-66
2022/11/29 07:28:40;;;;;;;;;15.50;14.50;;;;;10.23;72.22;101340.06;5038206;28;45511;-67
2022/11/29 07:31:24;;;;;;;;;12.00;11.00;;;;;10.22;72.35;101340.97;5039589;28;46616;-66
2022/11/29 07:33:55;;;;;;;;;10.75;9.25;;;;;10.20;72.09;101336.63;5039683;28;45365;-64
2022/11/29 07:36:32;;;;;;;;;15.00;12.75;;;;;10.18;71.48;101346.50;5039911;28;45372;-66
2022/11/29 07:39:12;;;;;;;;;14.75;10.50;;;;;10.14;71.74;101337.66;5038445;28;46248;-65
2022/11/29 07:42:11;;;;;;;;;7.00;7.00;;;;;10.15;71.55;101350.13;5039652;28;45397;-66
2022/11/29 07:44:45;;;;;;;;;10.50;7.75;;;;;10.16;72.24;101349.22;5039787;28;45364;-65
2022/11/29 07:47:11;;;;;;;;;10.00;9.00;;;;;10.21;71.47;101347.25;5040009;28;45270;-65
2022/11/29 07:49:36;;;;;;;;;14.00;10.75;;;;;10.21;71.18;101351.75;5039365;28;45254;-66
2022/11/29 07:52:01;;;;;;;;;10.75;10.75;;;;;10.14;71.53;101343.00;5039655;28;45291;-66
2022/11/29 07:54:27;;;;;;;;;12.50;12.50;;;;;10.22;71.01;101358.84;5039211;28;45451;-66
2022/11/29 07:56:52;;;;;;;;;11.00;11.00;;;;;10.24;71.49;101360.56;5039792;28;45346;-66
2022/11/29 07:59:18;;;;;;;;;11.00;9.00;;;;;10.23;71.73;101358.81;5040048;28;45406;-65
2022/11/29 08:01:44;;;;;;;;;18.50;12.25;;;;;10.21;71.75;101360.66;5039590;28;47289;-66
2022/11/29 08:04:09;;;;;;;;;11.50;10.00;;;;;10.22;71.75;101354.38;5036760;28;45422;-67
2022/11/29 08:06:36;;;;;;;;;11.00;10.00;;;;;10.33;71.43;101369.22;5036833;28;45439;-65
2022/11/29 08:09:02;;;;;;;;;9.50;9.50;;;;;10.37;71.58;101365.50;5019960;28;45487;-66
2022/11/29 08:11:28;;;;;;;;;17.75;14.50;;;;;10.41;71.62;101365.34;5039058;28;46241;-66
2022/11/29 08:14:01;;;;;;;;;17.00;15.25;;;;;10.48;71.41;101369.53;5038802;28;45824;-66
2022/11/29 08:16:26;;;;;;;;;9.75;9.75;;;;;10.54;71.56;101371.16;5039095;28;45400;-65
2022/11/29 08:18:51;;;;;;;;;13.25;13.25;;;;;10.54;71.04;101363.13;5038954;28;46380;-66
2022/11/29 08:21:17;;;;;;;;;14.75;13.75;;;;;10.61;70.74;101373.56;5037354;28;45544;-65
2022/11/29 08:23:47;;;;;;;;;15.50;15.50;;;;;10.62;70.71;101377.13;5038635;28;45385;-64
2022/11/29 08:26:13;;;;;;;;;16.50;14.00;;;;;10.59;70.22;101380.78;5039153;28;45464;-66
2022/11/29 08:28:38;;;;;;;;;18.00;16.75;;;;;10.55;70.50;101384.47;5038220;28;45392;-66
2022/11/29 08:31:06;;;;;;;;;17.50;15.25;;;;;10.59;70.92;101386.13;5038283;28;45974;-65
2022/11/29 08:33:36;;;;;;;;;19.00;16.50;;;;;10.49;71.03;101371.31;5038101;28;45453;-65
2022/11/29 08:36:07;;;;;;;;;18.00;16.75;;;;;10.67;70.60;101390.34;5038387;28;45324;-66
2022/11/29 08:38:32;;;;;;;;;14.50;14.25;;;;;10.68;70.28;101392.97;5034347;28;45525;-66
2022/11/29 08:41:02;;;;;;;;;14.75;14.75;;;;;10.70;70.21;101396.47;5037832;28;46440;-65
2022/11/29 08:43:29;;;;;;;;;20.25;20.25;;;;;10.75;70.21;101398.97;5038157;28;45316;-65
2022/11/29 08:45:55;;;;;;;;;17.25;16.75;;;;;10.78;70.81;101402.44;5038952;28;45577;-61
2022/11/29 08:48:20;;;;;;;;;24.50;23.00;;;;;10.85;71.21;101412.00;5037958;28;45533;-61
2022/11/29 08:50:48;;;;;;;;;19.50;18.75;;;;;10.89;71.13;101419.00;5037880;28;46365;-60
2022/11/29 08:55:58;;;;;;;;;24.75;21.25;;;;;10.93;70.73;101425.16;5037777;28;45558;-61
2022/11/29 08:58:24;;;;;;;;;27.75;25.25;;;;;11.01;70.82;101439.16;5038094;28;45502;-61
2022/11/29 09:00:50;;;;;;;;;28.00;23.25;;;;;11.06;70.46;101439.84;5038135;28;45242;-61
2022/11/29 09:06:08;;;;;;;;;31.75;27.75;;;;;11.09;69.74;101439.75;5038707;28;45249;-62
2022/11/29 09:08:33;;;;;;;;;38.75;28.25;;;;;11.08;68.77;101438.00;5038636;28;45245;-61
2022/11/29 09:10:59;;;;;;;;;32.25;29.25;;;;;11.09;69.77;101453.16;5038323;28;45559;-62
2022/11/29 09:13:24;;;;;;;;;27.50;27.50;;;;;11.07;69.36;101438.91;5037758;28;45439;-60
2022/11/29 09:15:49;;;;;;;;;28.00;26.25;;;;;11.07;68.99;101449.66;5038555;28;45234;-62
2022/11/29 09:18:15;;;;;;;;;29.75;28.00;;;;;11.08;69.64;101456.78;5038404;28;45600;-61
2022/11/29 09:20:45;;;;;;;;;27.25;26.25;;;;;11.10;68.95;101459.41;5038176;28;45972;-61
2022/11/29 09:23:12;;;;;;;;;30.00;27.00;;;;;11.07;68.75;101465.75;5038216;28;45426;-61
2022/11/29 09:25:37;;;;;;;;;27.75;22.00;;;;;11.06;69.61;101465.84;5038710;28;45387;-63
2022/11/29 09:28:02;;;;;;;;;26.50;25.75;;;;;11.09;69.68;101469.25;5038471;28;47506;-62
2022/11/29 09:30:30;;;;;;;;;24.75;23.00;;;;;11.14;69.21;101477.16;5041803;28;45125;-61
2022/11/29 09:32:59;;;;;;;;;25.75;20.75;;;;;11.11;68.82;101472.78;5038939;28;45443;-61
2022/11/29 09:35:24;;;;;;;;;23.00;19.50;;;;;11.10;68.54;101478.19;5038328;28;45404;-61
2022/11/29 09:37:50;;;;;;;;;27.25;25.75;;;;;11.11;68.42;101485.31;5038210;28;45914;-60
2022/11/29 09:40:20;;;;;;;;;21.75;21.75;;;;;11.08;68.69;101486.28;5037967;28;45307;-60
2022/11/29 09:42:53;;;;;;;;;18.00;18.00;;;;;11.05;68.85;101486.44;5041362;28;45344;-61
2022/11/29 09:45:28;;;;;;;;;23.00;23.00;;;;;11.10;68.99;101496.97;5041713;28;45345;-61
2022/11/29 09:48:14;;;;;;;;;25.00;25.00;;;;;11.13;68.64;101502.25;5041511;28;45857;-61
2022/11/29 09:50:49;;;;;;;;;20.50;19.75;;;;;11.14;68.61;101498.63;5027028;28;46372;-61
2022/11/29 09:53:27;;;;;;;;;25.00;19.50;;;;;11.14;68.65;101507.56;5041281;28;45395;-61
2022/11/29 09:56:13;;;;;;;;;24.75;24.50;;;;;11.17;68.59;101509.22;5041789;28;45356;-62
2022/11/29 09:59:03;;;;;;;;;23.00;23.00;;;;;11.20;68.60;101514.50;5041255;28;45510;-61
2022/11/29 10:01:36;;;;;;;;;23.50;21.25;;;;;11.10;67.44;101497.84;5040946;28;46185;-61
2022/11/29 10:04:11;;;;;;;;;19.00;16.50;;;;;11.20;68.33;101530.59;5041131;28;45391;-61
2022/11/29 10:06:43;;;;;;;;;28.25;23.00;;;;;11.21;68.09;101530.56;5041501;28;45448;-60
2022/11/29 10:09:22;;;;;;;;;21.00;19.25;;;;;11.23;68.44;101527.78;5040950;28;45380;-62
2022/11/29 10:12:05;;;;;;;;;23.00;19.25;;;;;11.25;68.14;101536.66;5040804;28;46097;-61
2022/11/29 10:14:39;;;;;;;;;19.00;18.25;;;;;11.28;67.83;101533.88;5041121;28;45331;-60
2022/11/29 10:17:19;;;;;;;;;25.75;21.00;;;;;11.30;67.75;101529.34;5041397;28;45466;-61
2022/11/29 10:20:02;;;;;;;;;31.00;26.00;;;;;11.30;67.86;101532.91;5041116;28;45439;-61
2022/11/29 10:22:42;;;;;;;;;33.00;31.75;;;;;11.32;67.32;101533.72;5040769;28;47286;-61
2022/11/29 10:25:16;;;;;;;;;41.25;32.50;;;;;11.34;67.45;101530.97;5040958;28;45350;-62
2022/11/29 10:27:41;;;;;;;;;24.75;21.50;;;;;11.36;67.03;101531.81;5040790;28;45360;-61
2022/11/29 10:30:14;;;;;;;;;51.25;36.00;;;;;11.34;67.62;101529.16;5040712;28;45621;-61
2022/11/29 10:32:42;;;;;;;;;37.75;34.25;;;;;11.35;67.11;101533.59;5040605;28;46739;-62
2022/11/29 10:35:16;;;;;;;;;35.75;34.25;;;;;11.36;67.32;101546.09;5040652;28;45668;-61
2022/11/29 10:37:42;;;;;;;;;32.75;31.75;;;;;11.38;66.84;101546.94;5041025;28;45348;-61
2022/11/29 10:40:18;;;;;;;;;42.00;32.25;;;;;11.41;66.87;101548.59;5040624;28;45469;-62
2022/11/29 10:42:47;;;;;;;;;47.00;36.25;;;;;11.39;66.80;101545.13;5040349;28;46331;-61
2022/11/29 10:45:18;;;;;;;;;32.75;31.25;;;;;11.39;66.72;101545.13;5040592;28;45508;-61
2022/11/29 10:47:46;;;;;;;;;40.25;33.25;;;;;11.37;66.63;101545.19;5040732;28;45346;-61
2022/11/29 10:50:24;;;;;;;;;38.50;33.50;;;;;11.39;67.16;101545.13;5039691;28;45451;-60
2022/11/29 10:52:49;;;;;;;;;29.75;29.75;;;;;11.33;66.95;101535.47;5040198;28;45304;-61
2022/11/29 10:55:16;;;;;;;;;32.25;30.25;;;;;11.40;67.05;101543.31;5040449;28;45270;-62
2022/11/29 10:58:23;;;;;;;;;35.25;31.75;;;;;11.41;67.13;101543.22;5040385;28;45363;-61
2022/11/29 11:00:53;;;;;;;;;32.25;28.25;;;;;11.41;66.77;101548.59;5039653;28;45335;-61
2022/11/29 11:03:40;;;;;;;;;38.00;33.75;;;;;11.37;66.47;101549.66;5027452;28;45393;-61
2022/11/29 11:06:18;;;;;;;;;37.75;26.50;;;;;11.24;66.05;101532.22;5039992;28;45332;-61
2022/11/29 11:08:51;;;;;;;;;26.75;22.75;;;;;11.19;67.14;101555.69;5040199;28;45453;-62
2022/11/29 11:11:29;;;;;;;;;27.00;24.75;;;;;11.13;67.01;101538.00;5040076;28;45475;-62
2022/11/29 11:14:01;;;;;;;;;26.25;23.00;;;;;11.14;66.52;101547.81;5039846;28;47191;-62
2022/11/29 11:16:27;;;;;;;;;23.50;21.50;;;;;11.10;66.54;101542.59;5040816;28;45216;-62
2022/11/29 11:18:52;;;;;;;;;24.75;24.75;;;;;11.03;67.42;101544.63;5041350;28;45423;-62
2022/11/29 11:21:21;;;;;;;;;24.75;22.50;;;;;11.03;67.43;101549.13;5040047;28;45308;-61
2022/11/29 11:23:47;;;;;;;;;17.25;17.25;;;;;11.08;67.28;101550.69;5039873;28;46097;-60
2022/11/29 11:26:13;;;;;;;;;23.25;21.25;;;;;11.13;67.49;101551.44;5040095;28;45383;-61
2022/11/29 11:29:00;;;;;;;;;23.75;22.00;;;;;11.19;67.33;101559.25;5039962;28;45175;-63
2022/11/29 11:31:28;;;;;;;;;20.50;20.50;;;;;11.23;67.00;101555.50;5039974;28;45158;-62
2022/11/29 11:33:54;;;;;;;;;21.25;21.25;;;;;11.28;66.86;101550.88;5039663;28;46625;-61
2022/11/29 11:36:19;;;;;;;;;24.50;18.75;;;;;11.33;66.93;101539.94;5039836;28;45280;-60
2022/11/29 11:39:10;;;;;;;;;25.50;22.25;;;;;11.42;66.29;101552.16;5039962;28;45345;-60
2022/11/29 11:44:28;;;;;;;;;28.75;26.00;;;;;11.45;66.22;101536.84;5039624;28;45310;-61
2022/11/29 11:46:54;;;;;;;;;23.50;23.25;;;;;11.49;65.76;101546.50;5039420;28;45205;-60
2022/11/29 11:49:29;;;;;;;;;27.50;26.25;;;;;11.53;65.96;101548.16;5039677;28;45320;-61
2022/11/29 11:51:55;;;;;;;;;32.75;30.50;;;;;11.58;65.86;101547.97;5039254;28;45336;-61
2022/11/29 11:54:21;;;;;;;;;29.25;24.25;;;;;11.58;65.66;101547.97;5038523;28;45367;-62
2022/11/29 11:56:46;;;;;;;;;31.25;25.25;;;;;11.52;65.91;101538.34;5039104;28;45323;-61
2022/11/29 11:59:18;;;;;;;;;29.25;28.50;;;;;11.41;66.14;101526.25;5039164;28;45212;-61
2022/11/29 12:01:44;;;;;;;;;28.25;26.50;;;;;11.52;65.67;101538.34;5039337;28;45275;-61
2022/11/29 12:04:23;;;;;;;;;28.25;26.75;;;;;11.52;65.79;101535.66;5038519;28;45500;-62
2022/11/29 12:06:53;;;;;;;;;30.50;27.25;;;;;11.56;65.92;101548.06;5039576;28;45491;-62
2022/11/29 12:09:24;;;;;;;;;30.25;27.00;;;;;11.58;65.88;101548.84;5039143;28;45265;-62
2022/11/29 12:11:58;;;;;;;;;30.50;27.00;;;;;11.61;65.95;101545.19;5038907;28;45394;-61
2022/11/29 12:14:50;;;;;;;;;29.25;29.00;;;;;11.65;65.85;101554.91;5038995;28;46462;-60
2022/11/29 12:17:30;;;;;;;;;33.25;27.75;;;;;11.67;65.69;101553.88;5035316;28;45328;-61
2022/11/29 12:20:18;;;;;;;;;31.75;27.00;;;;;11.71;65.01;101554.66;5039283;28;45386;-61
2022/11/29 12:22:48;;;;;;;;;34.25;30.50;;;;;11.73;64.77;101556.38;5020964;28;46180;-60
2022/11/29 12:25:19;;;;;;;;;35.25;32.00;;;;;11.72;64.36;101553.75;5038734;28;46457;-61
2022/11/29 12:27:45;;;;;;;;;33.25;29.25;;;;;11.71;64.92;101550.16;5038984;28;45303;-61
2022/11/29 12:30:14;;;;;;;;;26.50;22.50;;;;;11.78;64.37;101552.66;5039120;28;45311;-61
2022/11/29 12:32:51;;;;;;;;;28.00;28.00;;;;;11.81;64.71;101552.53;5038940;28;45349;-62
2022/11/29 12:35:33;;;;;;;;;26.50;23.75;;;;;11.82;63.93;101549.81;5039023;28;46470;-61
2022/11/29 12:38:10;;;;;;;;;31.75;28.25;;;;;11.87;63.80;101552.31;5038045;28;45406;-60
2022/11/29 12:40:47;;;;;;;;;33.00;30.75;;;;;11.89;64.41;101551.31;5038406;28;45341;-62
2022/11/29 12:43:13;;;;;;;;;29.00;26.25;;;;;11.93;63.79;101554.75;5038537;28;45389;-61
2022/11/29 12:46:26;;;;;;;;;22.00;20.00;;;;;11.97;63.76;101567.16;5038971;28;45327;-64
2022/11/29 12:49:03;;;;;;;;;24.50;23.75;;;;;11.98;63.65;101560.84;5036159;28;45455;-62
2022/11/29 12:51:28;;;;;;;;;25.50;23.00;;;;;11.99;63.21;101565.28;5038726;28;45387;-61
2022/11/29 12:54:02;;;;;;;;;23.50;23.50;;;;;12.01;63.11;101574.13;5038727;28;45331;-61
2022/11/29 12:56:36;;;;;;;;;24.00;21.00;;;;;12.03;63.58;101573.16;5038488;28;45261;-62
2022/11/29 12:59:23;;;;;;;;;20.75;20.00;;;;;12.06;63.47;101574.84;5038053;28;45348;-62
2022/11/29 13:02:19;;;;;;;;;17.00;17.00;;;;;12.11;62.90;101580.91;5038971;28;45518;-61
2022/11/29 13:04:52;;;;;;;;;19.25;16.75;;;;;12.11;62.45;101580.91;5020432;28;45731;-60
2022/11/29 13:07:49;;;;;;;;;17.25;14.75;;;;;12.17;62.04;101590.53;5039325;28;45322;-61
2022/11/29 13:10:31;;;;;;;;;14.25;13.00;;;;;12.19;61.25;101583.28;5040542;28;45320;-60
2022/11/29 13:13:24;;;;;;;;;15.00;13.25;;;;;12.22;61.07;101594.81;5033171;28;45396;-60
2022/11/29 13:16:11;;;;;;;;;13.75;12.00;;;;;12.27;61.62;101582.06;5020795;28;45323;-60
2022/11/29 13:18:42;;;;;;;;;16.50;13.25;;;;;12.33;60.80;101584.53;5022041;28;46275;-61
2022/11/29 13:21:14;;;;;;;;;14.75;14.75;;;;;12.41;60.63;101585.09;5021944;28;45332;-61
2022/11/29 13:23:51;;;;;;;;;11.75;10.75;;;;;12.47;59.99;101583.97;5021868;28;45304;-61
2022/11/29 13:26:17;;;;;;;;;14.00;14.00;;;;;12.50;60.06;101579.31;5022247;28;45332;-61
2022/11/29 13:28:45;;;;;;;;;12.00;12.00;;;;;12.56;60.57;101577.34;5003869;28;46240;-61
2022/11/29 13:31:17;;;;;;;;;16.00;14.00;;;;;12.60;60.33;101584.31;5021833;28;45341;-62
2022/11/29 13:33:46;;;;;;;;;14.75;13.50;;;;;12.62;60.42;101577.06;5021875;28;45598;-61
2022/11/29 13:36:14;;;;;;;;;16.00;14.00;;;;;12.63;60.31;101582.41;5020705;28;45322;-62
2022/11/29 13:38:51;;;;;;;;;11.00;11.00;;;;;12.63;59.45;101581.53;5021364;28;45333;-61
2022/11/29 13:41:38;;;;;;;;;12.00;12.00;;;;;12.62;59.73;101579.75;5021633;28;45321;-62
2022/11/29 13:44:13;;;;;;;;;16.00;14.50;;;;;12.58;60.22;101575.47;5030911;28;45467;-61
2022/11/29 13:46:42;;;;;;;;;10.50;9.00;;;;;12.62;59.58;101577.06;5041735;28;45275;-62
2022/11/29 13:49:38;;;;;;;;;10.75;10.75;;;;;12.61;60.03;101583.38;5041397;28;46404;-60
2022/11/29 13:52:05;;;;;;;;;12.00;12.00;;;;;12.61;59.50;101580.69;5041861;28;45405;-60
2022/11/29 13:54:32;;;;;;;;;13.25;13.25;;;;;12.63;59.32;101574.31;5041332;28;45278;-62
2022/11/29 13:57:05;;;;;;;;;13.00;10.00;;;;;12.62;59.08;101569.88;5040539;28;45454;-61
2022/11/29 13:59:34;;;;;;;;;13.00;12.25;;;;;12.70;59.55;101572.25;5040454;28;45486;-60
2022/11/29 14:02:01;;;;;;;;;15.25;12.25;;;;;12.69;59.45;101573.19;5041261;28;45399;-61
2022/11/29 14:04:38;;;;;;;;;15.00;13.00;;;;;12.61;58.69;101565.44;5041437;28;45522;-61
2022/11/29 14:07:18;;;;;;;;;12.00;12.00;;;;;12.70;58.96;101577.63;5041235;28;45492;-61
2022/11/29 14:09:48;;;;;;;;;17.25;14.25;;;;;12.73;58.58;101572.13;5040960;28;45364;-61
2022/11/29 14:12:38;;;;;;;;;15.50;14.00;;;;;12.72;58.30;101578.47;5041105;28;45379;-61
2022/11/29 14:15:27;;;;;;;;;16.25;16.25;;;;;12.67;58.41;101572.41;5040782;28;45343;-62
2022/11/29 14:17:58;;;;;;;;;12.75;11.50;;;;;12.71;58.38;101584.78;5040016;28;45423;-62
2022/11/29 14:20:29;;;;;;;;;13.00;12.75;;;;;12.65;58.31;101576.97;5040946;28;46195;-62
2022/11/29 14:23:03;;;;;;;;;11.00;10.75;;;;;12.58;58.41;101570.09;5040131;28;45491;-61
2022/11/29 14:25:30;;;;;;;;;10.75;10.75;;;;;12.57;59.34;101579.97;5041128;28;45383;-61
2022/11/29 14:27:58;;;;;;;;;15.00;12.50;;;;;12.51;59.32;101577.50;5040153;28;45484;-61
2022/11/29 14:30:39;;;;;;;;;15.25;15.25;;;;;12.36;59.50;101548.56;5040016;28;45412;-61
2022/11/29 14:33:25;;;;;;;;;16.00;13.50;;;;;12.42;59.23;101570.69;5040689;28;45297;-61
2022/11/29 14:36:09;;;;;;;;;13.25;11.75;;;;;12.40;59.15;101574.41;5040405;28;45360;-61
2022/11/29 14:39:13;;;;;;;;;12.50;11.50;;;;;12.37;59.02;101571.81;5040500;28;45546;-62
2022/11/29 14:41:53;;;;;;;;;16.00;13.25;;;;;12.34;59.54;101572.81;5039569;28;45434;-61
2022/11/29 14:44:30;;;;;;;;;11.25;10.75;;;;;12.33;59.41;101571.09;5040881;28;45334;-60
2022/11/29 14:47:01;;;;;;;;;13.75;11.75;;;;;12.33;59.44;101572.91;5040521;28;45349;-61
2022/11/29 14:49:28;;;;;;;;;15.00;12.50;;;;;12.34;59.35;101577.31;5040745;28;45357;-61
2022/11/29 14:52:08;;;;;;;;;12.50;11.75;;;;;12.35;59.46;101579.94;5040705;28;46095;-61
2022/11/29 14:54:34;;;;;;;;;12.75;11.75;;;;;12.35;59.39;101589.81;5040817;28;45429;-61
2022/11/29 14:57:45;;;;;;;;;12.75;10.00;;;;;12.32;59.46;101595.34;5040515;28;45358;-61
2022/11/29 15:00:14;;;;;;;;;14.00;12.50;;;;;12.30;59.92;101597.22;5039078;28;45435;-61
2022/11/29 15:03:08;;;;;;;;;12.00;11.50;;;;;12.30;59.94;101595.41;5040918;28;46988;-61
2022/11/29 15:05:37;;;;;;;;;17.75;13.75;;;;;12.27;59.74;101597.31;5040617;28;45427;-62
2022/11/29 15:08:14;;;;;;;;;9.75;9.75;;;;;12.22;59.58;101596.63;5040276;28;45324;-61
2022/11/29 15:10:46;;;;;;;;;12.75;12.75;;;;;12.17;60.12;101604.84;5040286;28;45288;-61
2022/11/29 15:13:17;;;;;;;;;18.00;16.00;;;;;12.13;60.30;101601.44;5040183;28;45431;-61
2022/11/29 15:16:15;;;;;;;;;12.25;12.25;;;;;12.07;60.57;101603.50;5040212;28;45276;-61
2022/11/29 15:18:59;;;;;;;;;16.25;14.50;;;;;12.05;60.64;101600.84;5040328;28;45341;-61
2022/11/29 15:22:08;;;;;;;;;11.75;11.75;;;;;11.92;61.20;101599.53;5040240;28;45319;-60
2022/11/29 15:24:59;;;;;;;;;9.00;9.00;;;;;11.97;61.19;101612.81;4980736;28;47439;-61
2022/11/29 15:27:25;;;;;;;;;12.00;11.75;;;;;11.94;60.58;101612.94;5039843;28;45482;-62
2022/11/29 15:29:51;;;;;;;;;12.00;11.75;;;;;11.93;60.89;101619.22;5040269;28;45277;-61
2022/11/29 15:32:26;;;;;;;;;13.50;12.75;;;;;11.92;61.06;101617.47;5039486;28;46220;-61
2022/11/29 15:34:54;;;;;;;;;16.25;15.00;;;;;11.90;61.12;101616.69;5039934;28;46284;-62
2022/11/29 15:37:44;;;;;;;;;14.25;11.75;;;;;11.83;61.70;101609.75;5039493;28;46022;-62
2022/11/29 15:40:17;;;;;;;;;12.75;11.75;;;;;11.86;61.38;101623.97;5039082;28;45206;-62
2022/11/29 15:42:52;;;;;;;;;16.25;11.75;;;;;11.73;61.69;101601.16;5039602;28;46649;-62
2022/11/29 15:45:33;;;;;;;;;13.50;12.75;;;;;11.83;61.94;101616.00;5039504;28;46917;-61
2022/11/29 15:48:25;;;;;;;;;15.50;12.75;;;;;11.79;61.69;101602.75;5039595;28;45414;-61
2022/11/29 15:51:04;;;;;;;;;15.75;14.25;;;;;11.83;61.72;101613.31;5039662;28;45217;-61
2022/11/29 15:53:29;;;;;;;;;10.00;10.00;;;;;11.83;61.64;101616.00;5039309;28;46039;-61
2022/11/29 15:55:58;;;;;;;;;13.50;13.50;;;;;11.84;61.78;101620.47;5039528;28;46227;-61
2022/11/29 15:58:28;;;;;;;;;19.00;15.00;;;;;11.80;61.41;101605.41;5038494;28;45452;-61
2022/11/29 16:00:53;;;;;;;;;16.50;15.00;;;;;11.83;61.39;101612.44;5033382;28;45217;-62
2022/11/29 16:03:27;;;;;;;;;12.25;12.25;;;;;11.80;61.58;101608.09;5039525;28;45280;-60
2022/11/29 16:06:02;;;;;;;;;15.50;14.00;;;;;11.80;61.51;101616.16;5038898;28;45542;-61
2022/11/29 16:08:33;;;;;;;;;12.75;10.75;;;;;11.78;61.87;101625.19;5039232;28;45252;-61
2022/11/29 16:10:59;;;;;;;;;17.50;15.50;;;;;11.78;61.27;101633.25;5039503;28;45456;-61
2022/11/29 16:13:24;;;;;;;;;19.25;15.25;;;;;11.75;61.49;101640.47;5039296;28;45380;-61
2022/11/29 16:16:19;;;;;;;;;14.75;14.75;;;;;11.75;61.84;101634.22;5039225;28;45324;-61
2022/11/29 16:18:47;;;;;;;;;20.00;16.75;;;;;11.74;61.60;101641.41;5038823;28;45426;-61
2022/11/29 16:21:30;;;;;;;;;13.00;11.25;;;;;11.75;61.82;101643.16;5039602;28;45420;-61
2022/11/29 16:23:57;;;;;;;;;13.75;13.75;;;;;11.77;62.00;101642.22;5038989;28;45470;-61
2022/11/29 16:26:25;;;;;;;;;10.75;10.75;;;;;11.76;61.70;101646.72;5039373;28;46255;-63
2022/11/29 16:28:52;;;;;;;;;16.00;16.00;;;;;11.72;61.46;101653.13;5038894;28;45407;-62
2022/11/29 16:31:29;;;;;;;;;14.75;14.75;;;;;11.73;61.58;101654.88;5038299;28;45344;-62
2022/11/29 16:33:55;;;;;;;;;15.00;14.75;;;;;11.65;61.68;101649.75;5038858;28;45376;-61
2022/11/29 16:36:20;;;;;;;;;20.50;16.00;;;;;11.67;62.05;101663.13;5037845;28;45519;-61
2022/11/29 16:38:52;;;;;;;;;18.50;17.00;;;;;11.67;61.97;101666.72;5038703;28;45215;-60
2022/11/29 16:41:34;;;;;;;;;19.75;16.00;;;;;11.61;61.80;101658.00;5039191;28;45386;-61
2022/11/29 16:44:02;;;;;;;;;17.00;13.25;;;;;11.58;62.14;101674.22;5038428;28;45171;-61
2022/11/29 16:46:33;;;;;;;;;16.25;15.75;;;;;11.56;62.72;101670.72;5038577;28;45427;-61
2022/11/29 16:49:02;;;;;;;;;16.00;15.00;;;;;11.53;62.35;101658.28;5039556;28;45296;-62
2022/11/29 16:51:42;;;;;;;;;14.75;14.75;;;;;11.51;62.29;101670.88;5040578;28;45359;-62
2022/11/29 16:54:23;;;;;;;;;18.50;18.50;;;;;11.46;62.11;101659.44;5039634;28;45351;-61
2022/11/29 16:56:50;;;;;;;;;18.00;17.00;;;;;11.44;62.69;101669.34;5038520;28;46498;-60
2022/11/29 16:59:16;;;;;;;;;21.00;17.50;;;;;11.45;62.29;101667.53;5038495;28;45435;-61
2022/11/29 17:01:42;;;;;;;;;19.25;16.75;;;;;11.31;62.71;101644.69;5038874;28;45197;-61
2022/11/29 17:04:07;;;;;;;;;18.75;18.75;;;;;11.40;63.18;101654.25;5038534;28;45485;-60
2022/11/29 17:06:33;;;;;;;;;21.25;18.00;;;;;11.42;63.15;101671.19;5038724;28;45374;-61
2022/11/29 17:08:59;;;;;;;;;23.00;21.75;;;;;11.39;63.77;101660.56;5038360;28;45882;-61
2022/11/29 17:11:24;;;;;;;;;22.25;20.00;;;;;11.40;63.63;101664.13;5038565;28;45174;-62
2022/11/29 17:13:50;;;;;;;;;26.25;23.25;;;;;11.44;64.31;101681.88;5038441;28;45451;-61
2022/11/29 17:16:20;;;;;;;;;22.50;20.75;;;;;11.46;63.93;101683.59;5037991;28;46243;-61
2022/11/29 17:18:46;;;;;;;;;14.75;14.75;;;;;11.48;64.20;101680.84;5038669;28;45337;-60
2022/11/29 17:21:24;;;;;;;;;26.25;22.00;;;;;11.43;64.29;101674.75;5038662;28;45367;-61
2022/11/29 17:23:50;;;;;;;;;27.50;22.25;;;;;11.49;64.56;101682.59;5038395;28;45551;-61
2022/11/29 17:26:16;;;;;;;;;24.75;23.75;;;;;11.48;64.32;101676.38;5038490;28;45432;-60